createdAt,value
2018-06-09T00:02:19.423Z,28.40
2018-06-09T00:04:47.495Z,28.30
2018-06-09T00:07:15.580Z,28.40
2018-06-09T00:09:43.663Z,28.30
2018-06-09T00:12:11.747Z,28.30
2018-06-09T00:14:39.847Z,28.30
2018-06-09T00:19:35.816Z,28.20
2018-06-09T00:22:03.904Z,28.20
2018-06-09T00:24:32.003Z,28.20
2018-06-09T00:27:00.088Z,28.20
2018-06-09T00:29:28.171Z,28.10
2018-06-09T00:31:56.248Z,28.10
2018-06-09T00:34:24.353Z,28.10
2018-06-09T00:36:52.458Z,28.00
2018-06-09T00:39:20.561Z,28.10
2018-06-09T00:41:48.673Z,28.00
2018-06-09T00:44:16.768Z,28.20
2018-06-09T00:46:44.849Z,28.30
2018-06-09T00:49:12.928Z,28.20
2018-06-09T00:51:41.008Z,28.10
2018-06-09T00:54:09.100Z,28.00
2018-06-09T00:56:44.269Z,27.90
2018-06-09T00:59:12.391Z,27.80
2018-06-09T01:01:47.140Z,27.90
2018-06-09T01:04:15.247Z,27.90
2018-06-09T01:06:43.343Z,27.80
2018-06-09T01:09:11.436Z,27.80
2018-06-09T01:11:39.523Z,27.80
2018-06-09T01:21:31.227Z,27.80
2018-06-09T01:23:59.334Z,27.70
2018-06-09T01:26:27.455Z,27.70
2018-06-09T01:28:55.554Z,27.70
2018-06-09T01:31:23.675Z,27.70
2018-06-09T01:33:51.758Z,27.70
2018-06-09T01:36:19.876Z,27.70
2018-06-09T01:38:47.957Z,27.70
2018-06-09T01:41:16.059Z,27.70
2018-06-09T01:43:44.133Z,27.80
2018-06-09T01:46:12.219Z,27.70
2018-06-09T01:51:08.175Z,27.60
2018-06-09T01:53:36.288Z,27.60
2018-06-09T01:56:04.400Z,27.60
2018-06-09T02:01:00.364Z,27.60
2018-06-09T02:03:28.485Z,27.50
2018-06-09T02:05:56.583Z,27.30
2018-06-09T02:08:24.687Z,27.40
2018-06-09T02:10:52.801Z,27.40
2018-06-09T02:13:20.918Z,27.30
2018-06-09T02:18:16.936Z,27.20
2018-06-09T02:20:45.049Z,27.30
2018-06-09T02:23:13.166Z,27.30
2018-06-09T02:25:41.273Z,27.20
2018-06-09T02:28:09.368Z,27.10
2018-06-09T02:30:37.464Z,27.00
2018-06-09T02:33:05.571Z,27.10
2018-06-09T02:35:33.697Z,27.00
2018-06-09T02:38:01.813Z,27.00
2018-06-09T02:40:29.926Z,27.10
2018-06-09T02:42:58.062Z,27.10
2018-06-09T02:45:26.162Z,27.10
2018-06-09T02:47:54.286Z,27.10
2018-06-09T02:50:22.398Z,27.10
2018-06-09T02:55:18.392Z,26.90
2018-06-09T02:57:46.493Z,27.00
2018-06-09T03:00:14.620Z,26.80
2018-06-09T03:02:42.712Z,26.90
2018-06-09T03:05:10.817Z,26.90
2018-06-09T03:07:38.952Z,26.80
2018-06-09T03:10:07.090Z,26.80
2018-06-09T03:12:35.196Z,26.80
2018-06-09T03:15:03.304Z,26.80
2018-06-09T03:17:31.418Z,26.80
2018-06-09T03:19:59.528Z,26.80
2018-06-09T03:22:27.637Z,26.80
2018-06-09T03:24:55.728Z,26.80
2018-06-09T03:29:51.731Z,26.70
2018-06-09T03:32:20.235Z,26.60
2018-06-09T03:34:48.348Z,26.60
2018-06-09T03:37:16.468Z,26.60
2018-06-09T03:39:44.573Z,26.60
2018-06-09T03:44:40.589Z,26.60
2018-06-09T03:47:08.700Z,26.70
2018-06-09T03:49:36.819Z,26.60
2018-06-09T03:52:04.977Z,26.70
2018-06-09T03:54:33.090Z,26.60
2018-06-09T03:57:01.200Z,26.50
2018-06-09T03:59:29.323Z,26.50
2018-06-09T04:01:57.444Z,26.50
2018-06-09T04:04:25.551Z,26.50
2018-06-09T04:06:53.665Z,26.40
2018-06-09T04:09:21.777Z,26.50
2018-06-09T04:11:49.893Z,26.40
2018-06-09T04:14:18.020Z,26.50
2018-06-09T04:16:48.636Z,26.50
2018-06-09T04:19:16.750Z,26.40
2018-06-09T04:21:44.926Z,26.50
2018-06-09T04:24:13.816Z,26.50
2018-06-09T04:26:41.953Z,26.60
2018-06-09T04:29:10.030Z,26.60
2018-06-09T04:31:38.151Z,26.60
2018-06-09T04:34:06.264Z,26.60
2018-06-09T04:36:34.429Z,26.60
2018-06-09T04:39:02.576Z,26.50
2018-06-09T04:41:30.711Z,26.60
2018-06-09T04:43:58.829Z,26.60
2018-06-09T04:46:26.945Z,26.70
2018-06-09T04:48:55.072Z,26.70
2018-06-09T04:53:51.065Z,26.90
2018-06-09T04:56:19.152Z,26.90
2018-06-09T04:58:47.236Z,26.80
2018-06-09T05:01:15.333Z,26.90
2018-06-09T05:03:43.436Z,26.90
2018-06-09T05:06:11.557Z,26.90
2018-06-09T05:08:39.663Z,26.80
2018-06-09T05:11:07.771Z,26.90
2018-06-09T05:13:35.902Z,26.80
2018-06-09T05:20:59.981Z,27.00
2018-06-09T05:23:28.140Z,26.90
2018-06-09T05:25:56.247Z,26.90
2018-06-09T05:28:24.360Z,26.90
2018-06-09T05:30:52.456Z,26.90
2018-06-09T05:33:20.565Z,26.90
2018-06-09T05:35:48.688Z,26.90
2018-06-09T05:38:16.792Z,26.90
2018-06-09T05:40:44.880Z,26.80
2018-06-09T05:43:12.969Z,26.90
2018-06-09T05:48:08.988Z,26.80
2018-06-09T05:50:37.087Z,26.90
2018-06-09T05:53:05.216Z,26.90
2018-06-09T05:55:33.325Z,26.90
2018-06-09T05:58:01.473Z,26.90
2018-06-09T06:00:29.589Z,27.00
2018-06-09T06:02:57.731Z,26.90
2018-06-09T06:05:25.792Z,27.00
2018-06-09T06:07:53.927Z,26.90
2018-06-09T06:10:22.039Z,26.90
2018-06-09T06:12:50.148Z,26.90
2018-06-09T06:15:18.278Z,26.90
2018-06-09T06:17:46.396Z,26.80
2018-06-09T06:20:14.493Z,26.90
2018-06-09T06:22:42.604Z,27.00
2018-06-09T06:25:10.705Z,27.10
2018-06-09T06:27:38.821Z,27.10
2018-06-09T06:30:06.924Z,27.10
2018-06-09T06:32:35.057Z,27.20
2018-06-09T06:35:03.140Z,27.30
2018-06-09T06:37:31.271Z,27.40
2018-06-09T06:39:59.391Z,27.50
2018-06-09T06:42:27.496Z,27.40
2018-06-09T06:44:55.644Z,27.50
2018-06-09T06:47:23.741Z,27.40
2018-06-09T06:49:51.859Z,27.40
2018-06-09T06:52:19.952Z,27.50
2018-06-09T06:54:48.093Z,27.60
2018-06-09T06:57:16.200Z,27.50
2018-06-09T06:59:44.312Z,27.60
2018-06-09T07:02:12.436Z,27.60
2018-06-09T07:04:40.556Z,27.50
2018-06-09T07:07:08.680Z,27.50
2018-06-09T07:09:36.816Z,27.40
2018-06-09T07:14:32.896Z,27.40
2018-06-09T07:17:00.997Z,27.40
2018-06-09T07:19:29.100Z,27.50
2018-06-09T07:21:57.241Z,27.50
2018-06-09T07:24:25.339Z,27.60
2018-06-09T07:26:53.456Z,27.70
2018-06-09T07:29:21.568Z,27.70
2018-06-09T07:31:49.672Z,27.90
2018-06-09T07:34:17.808Z,27.90
2018-06-09T07:36:46.061Z,28.00
2018-06-09T07:39:14.164Z,28.00
2018-06-09T07:41:42.256Z,28.00
2018-06-09T07:46:38.257Z,28.20
2018-06-09T07:49:06.383Z,28.20
2018-06-09T07:51:34.510Z,28.20
2018-06-09T07:54:02.611Z,28.20
2018-06-09T07:56:30.728Z,28.30
2018-06-09T07:58:58.840Z,28.40
2018-06-09T08:01:26.932Z,28.40
2018-06-09T08:03:55.048Z,28.30
2018-06-09T08:06:23.163Z,28.30
2018-06-09T08:08:51.374Z,28.30
2018-06-09T08:13:47.508Z,28.30
2018-06-09T08:16:15.608Z,28.40
2018-06-09T08:18:43.728Z,28.20
2018-06-09T08:21:11.820Z,28.30
2018-06-09T08:23:39.936Z,28.40
2018-06-09T08:26:08.108Z,28.50
2018-06-09T08:28:36.224Z,28.40
2018-06-09T08:31:04.357Z,28.50
2018-06-09T08:33:32.464Z,28.40
2018-06-09T08:36:00.652Z,28.40
2018-06-09T08:38:28.724Z,28.50
2018-06-09T08:40:57.005Z,28.60
2018-06-09T08:43:25.104Z,28.50
2018-06-09T08:45:53.203Z,28.50
2018-06-09T08:48:21.327Z,28.50
2018-06-09T08:50:49.512Z,28.60
2018-06-09T08:53:17.624Z,28.80
2018-06-09T08:55:45.784Z,28.90
2018-06-09T08:58:13.908Z,28.90
2018-06-09T09:00:41.996Z,28.90
2018-06-09T09:08:05.876Z,29.10
2018-06-09T09:10:33.985Z,29.30
2018-06-09T09:13:02.085Z,29.40
2018-06-09T09:15:30.199Z,29.60
2018-06-09T09:18:04.912Z,29.70
2018-06-09T09:20:33.023Z,30.10
2018-06-09T09:23:01.143Z,30.50
2018-06-09T09:25:29.252Z,30.70
2018-06-09T09:27:57.370Z,30.90
2018-06-09T09:30:25.473Z,30.90
2018-06-09T09:32:53.602Z,31.10
2018-06-09T09:35:21.753Z,31.30
2018-06-09T09:37:49.868Z,31.30
2018-06-09T09:40:18.000Z,31.30
2018-06-09T09:42:46.113Z,31.60
2018-06-09T09:45:14.224Z,31.70
2018-06-09T09:47:42.324Z,31.90
2018-06-09T09:50:10.435Z,32.00
2018-06-09T09:52:38.540Z,32.50
2018-06-09T09:55:06.683Z,32.80
2018-06-09T09:57:46.192Z,33.30
2018-06-09T10:00:18.553Z,33.40
2018-06-09T10:07:42.424Z,34.40
2018-06-09T10:10:10.520Z,34.70
2018-06-09T10:12:38.642Z,34.80
2018-06-09T10:15:06.769Z,34.80
2018-06-09T10:17:34.856Z,34.90
2018-06-09T10:20:02.968Z,34.70
2018-06-09T10:22:31.055Z,34.80
2018-06-09T10:24:59.155Z,34.90
2018-06-09T10:27:27.252Z,35.00
2018-06-09T10:29:55.368Z,35.10
2018-06-09T10:32:23.484Z,35.60
2018-06-09T10:37:19.492Z,35.80
2018-06-09T10:39:47.576Z,35.60
2018-06-09T10:42:15.680Z,35.60
2018-06-09T10:44:43.788Z,35.80
2018-06-09T10:47:11.907Z,36.20
2018-06-09T10:49:40.014Z,36.30
2018-06-09T10:52:08.131Z,36.50
2018-06-09T10:54:36.228Z,36.50
2018-06-09T10:57:04.376Z,36.50
2018-06-09T11:02:00.451Z,36.20
2018-06-09T11:04:28.548Z,36.00
2018-06-09T11:06:56.668Z,36.00
2018-06-09T11:09:24.768Z,36.00
2018-06-09T11:11:52.860Z,35.90
2018-06-09T11:14:20.963Z,35.60
2018-06-09T11:16:49.070Z,35.60
2018-06-09T11:19:17.181Z,35.20
2018-06-09T11:21:45.336Z,35.20
2018-06-09T11:24:13.449Z,34.90
2018-06-09T11:26:41.584Z,34.80
2018-06-09T11:29:09.689Z,34.50
2018-06-09T11:31:37.789Z,34.40
2018-06-09T11:36:33.788Z,34.20
2018-06-09T11:39:07.617Z,34.10
2018-06-09T11:41:36.166Z,34.10
2018-06-09T11:46:37.532Z,34.10
2018-06-09T11:49:05.656Z,34.10
2018-06-09T11:51:33.804Z,34.10
2018-06-09T11:54:01.940Z,34.10
2018-06-09T11:56:30.044Z,34.10
2018-06-09T12:01:26.085Z,34.00
2018-06-09T12:03:54.227Z,34.00
2018-06-09T12:06:22.320Z,34.10
2018-06-09T12:08:50.439Z,34.10
2018-06-09T12:11:18.545Z,34.10
2018-06-09T12:13:46.663Z,34.10
2018-06-09T12:16:14.761Z,34.20
2018-06-09T12:18:42.864Z,34.20
2018-06-09T12:21:10.982Z,34.40
2018-06-09T12:23:39.105Z,34.50
2018-06-09T12:26:07.209Z,34.40
2018-06-09T12:28:35.331Z,34.60
2018-06-09T12:31:03.428Z,34.80
2018-06-09T12:33:31.545Z,34.90
2018-06-09T12:35:59.726Z,35.00
2018-06-09T12:38:27.842Z,35.30
2018-06-09T12:40:55.927Z,35.50
2018-06-09T12:48:19.825Z,36.30
2018-06-09T12:50:48.842Z,36.80
2018-06-09T12:53:16.944Z,37.10
2018-06-09T12:55:45.063Z,37.60
2018-06-09T12:58:13.188Z,38.20
2018-06-09T13:00:41.292Z,39.00
2018-06-09T13:03:09.407Z,40.90
2018-06-09T13:05:37.532Z,42.60
2018-06-09T13:08:05.676Z,45.30
2018-06-09T13:10:33.800Z,47.30
2018-06-09T13:13:01.936Z,48.30
2018-06-09T13:15:30.071Z,48.20
2018-06-09T13:20:26.076Z,50.10
2018-06-09T13:22:54.199Z,50.90
2018-06-09T13:25:22.308Z,50.80
2018-06-09T13:27:50.433Z,50.90
2018-06-09T13:30:18.610Z,50.10
2018-06-09T13:35:14.648Z,50.70
2018-06-09T13:37:42.857Z,51.10
2018-06-09T13:40:10.867Z,51.40
2018-06-09T13:42:38.963Z,51.90
2018-06-09T13:47:34.976Z,51.70
2018-06-09T13:50:03.109Z,51.00
2018-06-09T13:52:32.035Z,50.60
2018-06-09T13:55:00.172Z,49.40
2018-06-09T13:57:28.287Z,48.70
2018-06-09T13:59:56.396Z,47.50
2018-06-09T14:02:24.517Z,46.60
2018-06-09T14:04:52.651Z,45.50
2018-06-09T14:07:20.772Z,44.80
2018-06-09T14:09:48.896Z,44.20
2018-06-09T14:12:17.185Z,43.60
2018-06-09T14:14:45.312Z,43.00
2018-06-09T14:17:13.427Z,42.60
2018-06-09T14:19:41.538Z,42.00
2018-06-09T14:22:09.632Z,41.70
2018-06-09T14:24:37.728Z,41.20
2018-06-09T14:27:05.832Z,41.10
2018-06-09T14:29:33.970Z,40.80
2018-06-09T14:32:02.232Z,40.60
2018-06-09T14:34:30.348Z,40.60
2018-06-09T14:36:58.468Z,40.70
2018-06-09T14:39:26.573Z,40.80
2018-06-09T14:41:54.676Z,40.60
2018-06-09T14:44:22.796Z,40.40
2018-06-09T14:46:50.884Z,40.40
2018-06-09T14:49:18.984Z,40.50
2018-06-09T14:51:47.095Z,40.60
2018-06-09T14:54:15.176Z,40.50
2018-06-09T14:56:44.674Z,40.60
2018-06-09T14:59:14.604Z,40.20
2018-06-09T15:01:45.163Z,40.00
2018-06-09T15:04:20.756Z,40.00
2018-06-09T15:06:50.460Z,40.00
2018-06-09T15:09:18.553Z,39.90
2018-06-09T15:11:53.420Z,39.80
2018-06-09T15:14:21.541Z,39.70
2018-06-09T15:16:49.642Z,39.60
2018-06-09T15:19:17.736Z,39.50
2018-06-09T15:21:45.838Z,39.20
2018-06-09T15:24:13.927Z,39.20
2018-06-09T15:26:42.034Z,39.10
2018-06-09T15:29:13.919Z,39.10
2018-06-09T15:31:42.041Z,39.00
2018-06-09T15:34:10.129Z,39.00
2018-06-09T15:36:38.268Z,38.80
2018-06-09T15:39:07.112Z,38.70
2018-06-09T15:41:35.224Z,38.70
2018-06-09T15:44:03.375Z,38.50
2018-06-09T15:46:31.555Z,38.50
2018-06-09T15:48:59.597Z,38.30
2018-06-09T15:51:27.719Z,38.20
2018-06-09T15:53:55.829Z,38.00
2018-06-09T15:56:23.925Z,37.90
2018-06-09T15:58:52.040Z,37.80
2018-06-09T16:01:20.149Z,37.80
2018-06-09T16:03:48.248Z,37.80
2018-06-09T16:06:16.370Z,37.80
2018-06-09T16:08:44.468Z,37.60
2018-06-09T16:11:12.568Z,37.40
2018-06-09T16:13:40.673Z,37.10
2018-06-09T16:16:08.796Z,37.00
2018-06-09T16:18:36.925Z,36.90
2018-06-09T16:21:12.573Z,36.90
2018-06-09T16:23:45.076Z,36.70
2018-06-09T16:26:13.186Z,36.70
2018-06-09T16:28:41.272Z,36.70
2018-06-09T16:31:09.392Z,36.70
2018-06-09T16:33:37.488Z,36.70
2018-06-09T16:36:05.608Z,36.70
2018-06-09T16:38:33.734Z,36.60
2018-06-09T16:41:09.410Z,36.60
2018-06-09T16:43:37.608Z,36.50
2018-06-09T16:46:12.336Z,36.30
2018-06-09T16:48:45.208Z,36.20
2018-06-09T16:51:13.303Z,36.00
2018-06-09T16:53:41.392Z,35.90
2018-06-09T16:56:09.555Z,35.80
2018-06-09T16:58:41.079Z,35.60
2018-06-09T17:01:09.540Z,35.50
2018-06-09T17:03:37.680Z,35.50
2018-06-09T17:06:05.824Z,35.30
2018-06-09T17:08:33.950Z,35.20
2018-06-09T17:11:02.088Z,35.20
2018-06-09T17:13:30.201Z,35.10
2018-06-09T17:15:58.311Z,34.90
2018-06-09T17:18:27.152Z,34.80
2018-06-09T17:20:55.229Z,34.80
2018-06-09T17:23:23.344Z,34.70
2018-06-09T17:25:51.428Z,34.70
2018-06-09T17:28:19.529Z,34.60
2018-06-09T17:30:47.612Z,34.50
2018-06-09T17:33:15.725Z,34.40
2018-06-09T17:35:43.813Z,34.30
2018-06-09T17:38:11.910Z,34.20
2018-06-09T17:40:40.000Z,34.20
2018-06-09T17:43:08.122Z,34.10
2018-06-09T17:45:36.227Z,34.00
2018-06-09T17:48:04.340Z,33.90
2018-06-09T17:50:32.447Z,33.80
2018-06-09T17:53:00.540Z,33.80
2018-06-09T17:55:28.627Z,33.80
2018-06-09T17:57:56.724Z,33.70
2018-06-09T18:00:24.840Z,33.60
2018-06-09T18:02:53.003Z,33.60
2018-06-09T18:05:21.097Z,33.50
2018-06-09T18:07:49.204Z,33.50
2018-06-09T18:10:17.300Z,33.40
2018-06-09T18:12:45.405Z,33.20
2018-06-09T18:15:13.492Z,33.20
2018-06-09T18:17:41.603Z,33.10
2018-06-09T18:20:09.723Z,33.00
2018-06-09T18:22:37.842Z,32.90
2018-06-09T18:25:05.996Z,32.80
2018-06-09T18:27:34.148Z,32.70
2018-06-09T18:30:02.242Z,32.70
2018-06-09T18:32:30.353Z,32.60
2018-06-09T18:34:58.440Z,32.60
2018-06-09T18:37:26.608Z,32.50
2018-06-09T18:39:54.788Z,32.40
2018-06-09T18:42:22.896Z,32.30
2018-06-09T18:44:50.996Z,32.20
2018-06-09T18:47:19.153Z,32.20
2018-06-09T18:49:47.244Z,32.10
2018-06-09T18:52:15.343Z,32.00
2018-06-09T18:54:43.452Z,32.00
2018-06-09T18:57:11.564Z,31.90
2018-06-09T18:59:39.661Z,31.80
2018-06-09T19:02:07.743Z,31.70
2018-06-09T19:04:35.847Z,31.70
2018-06-09T19:07:04.013Z,31.60
2018-06-09T19:09:32.092Z,31.60
2018-06-09T19:12:00.186Z,31.60
2018-06-09T19:14:28.272Z,31.50
2018-06-09T19:16:56.368Z,31.50
2018-06-09T19:19:24.464Z,31.40
2018-06-09T19:21:52.584Z,31.30
2018-06-09T19:24:20.681Z,31.30
2018-06-09T19:26:48.789Z,31.20
2018-06-09T19:29:16.916Z,31.20
2018-06-09T19:31:45.012Z,31.10
2018-06-09T19:34:13.133Z,31.00
2018-06-09T19:36:41.224Z,31.00
2018-06-09T19:39:09.369Z,31.00
2018-06-09T19:41:37.456Z,30.90
2018-06-09T19:44:05.597Z,30.90
2018-06-09T19:46:33.717Z,30.80
2018-06-09T19:49:01.877Z,30.80
2018-06-09T19:51:30.028Z,30.70
2018-06-09T19:53:58.147Z,30.40
2018-06-09T19:56:26.276Z,29.80
2018-06-09T19:58:54.380Z,29.30
2018-06-09T20:01:22.519Z,28.80
2018-06-09T20:03:50.701Z,28.40
2018-06-09T20:06:18.812Z,28.30
2018-06-09T20:08:46.916Z,28.20
2018-06-09T20:11:15.003Z,28.20
2018-06-09T20:13:43.100Z,27.80
2018-06-09T20:16:11.225Z,27.30
2018-06-09T20:18:39.320Z,27.30
2018-06-09T20:21:07.460Z,27.50
2018-06-09T20:23:35.587Z,27.50
2018-06-09T20:26:05.243Z,27.60
2018-06-09T20:28:33.741Z,27.50
2018-06-09T20:31:01.981Z,27.20
2018-06-09T20:33:30.116Z,27.20
2018-06-09T20:35:58.232Z,27.30
2018-06-09T20:38:26.348Z,27.30
2018-06-09T20:40:54.429Z,27.30
2018-06-09T20:43:22.545Z,27.30
2018-06-09T20:45:50.646Z,27.20
2018-06-09T20:48:18.833Z,27.20
2018-06-09T20:50:46.941Z,27.10
2018-06-09T20:53:15.036Z,27.00
2018-06-09T20:55:43.160Z,26.90
2018-06-09T20:58:11.265Z,26.70
2018-06-09T21:00:39.408Z,26.80
2018-06-09T21:03:07.516Z,26.70
2018-06-09T21:05:35.623Z,26.70
2018-06-09T21:08:03.749Z,26.60
2018-06-09T21:10:31.841Z,26.70
2018-06-09T21:12:59.945Z,26.70
2018-06-09T21:15:28.036Z,26.90
2018-06-09T21:17:56.149Z,27.00
2018-06-09T21:20:24.244Z,26.80
2018-06-09T21:22:52.367Z,26.60
2018-06-09T21:25:20.480Z,26.60
2018-06-09T21:27:54.097Z,26.50
2018-06-09T21:30:27.639Z,26.50
2018-06-09T21:33:01.089Z,26.60
2018-06-09T21:35:43.458Z,26.60
2018-06-09T21:38:16.493Z,26.60
2018-06-09T21:40:47.627Z,26.60
2018-06-09T21:43:21.296Z,26.40
2018-06-09T21:45:50.416Z,26.40
2018-06-09T21:48:19.213Z,26.30
2018-06-09T21:50:47.408Z,26.20
2018-06-09T21:53:15.545Z,26.10
2018-06-09T21:55:43.644Z,26.30
2018-06-09T21:58:11.753Z,26.30
2018-06-09T22:00:39.896Z,26.50
2018-06-09T22:03:08.033Z,26.80
2018-06-09T22:05:36.144Z,27.00
2018-06-09T22:08:04.260Z,27.20
2018-06-09T22:10:32.368Z,27.50
2018-06-09T22:13:00.496Z,27.60
2018-06-09T22:15:28.614Z,27.70
2018-06-09T22:17:56.703Z,27.80
2018-06-09T22:20:24.847Z,27.90
2018-06-09T22:22:52.976Z,27.90
2018-06-09T22:25:26.392Z,28.00
2018-06-09T22:27:54.543Z,28.00
2018-06-09T22:30:22.660Z,28.10
2018-06-09T22:32:50.772Z,28.00
2018-06-09T22:35:18.865Z,28.00
2018-06-09T22:37:47.035Z,28.00
2018-06-09T22:40:15.169Z,27.90
2018-06-09T22:42:43.288Z,27.80
2018-06-09T22:45:11.397Z,27.80
2018-06-09T22:47:39.504Z,27.80
2018-06-09T22:50:07.627Z,27.80
2018-06-09T22:52:35.734Z,27.80
2018-06-09T22:55:03.876Z,27.80
2018-06-09T22:57:32.005Z,27.80
2018-06-09T23:00:00.141Z,27.90
2018-06-09T23:02:28.239Z,27.90
2018-06-09T23:04:56.375Z,27.90
2018-06-09T23:07:24.478Z,27.90
2018-06-09T23:09:52.571Z,28.00
2018-06-09T23:12:20.686Z,28.00
2018-06-09T23:14:48.811Z,28.00
2018-06-09T23:17:16.972Z,27.90
2018-06-09T23:19:45.077Z,27.90
2018-06-09T23:22:13.227Z,27.90
2018-06-09T23:24:41.357Z,27.90
2018-06-09T23:27:09.476Z,28.00
2018-06-09T23:29:37.586Z,27.90
2018-06-09T23:32:06.357Z,27.90
2018-06-09T23:34:34.457Z,27.90
2018-06-09T23:37:02.584Z,27.90
2018-06-09T23:39:30.712Z,27.90
2018-06-09T23:41:58.898Z,27.90
2018-06-09T23:44:27.001Z,27.90
2018-06-09T23:46:55.149Z,27.90
2018-06-09T23:49:23.269Z,27.90
2018-06-09T23:51:51.427Z,27.90
2018-06-09T23:54:19.512Z,27.90
2018-06-09T23:56:47.608Z,27.80
2018-06-09T23:59:15.700Z,27.90
